Time;durP1;ratioP1;P1;durP2;ratioP2;P2;SDS_P1;SDS_P2;PMS_P1;PMS_P2;Temp;Humidity;BMP_temperature;BMP_pressure;BME280_temperature;BME280_humidity;BME280_pressure;Samples;Min_cycle;Max_cycle;Signal;HPM_P1;HPM_P2
2021/03/15 00:02:17;;;;;;;;;;;;;;;6.69;100.00;99543.78;5059869;28;19955;-89
2021/03/15 00:04:44;;;;;;;;;;;;;;;6.67;100.00;99548.13;5078789;28;19927;-88
2021/03/15 00:07:11;;;;;;;;;;;;;;;6.67;100.00;99518.38;5095313;28;20012;-88
2021/03/15 00:09:37;;;;;;;;;;;;;;;6.68;100.00;99519.97;5095227;28;19928;-88
2021/03/15 00:12:04;;;;;;;;;;;;;;;6.68;100.00;99524.75;5078404;28;19928;-90
2021/03/15 00:14:31;;;;;;;;;;;;;;;6.67;100.00;99512.03;5078639;28;19924;-89
2021/03/15 00:16:57;;;;;;;;;;;;;;;6.68;100.00;99506.06;5095273;28;19930;-89
2021/03/15 00:19:24;;;;;;;;;;;;;;;6.65;100.00;99519.97;5058147;28;19929;-89
2021/03/15 00:21:50;;;;;;;;;;;;;;;6.63;100.00;99531.44;5085867;28;19931;-90
2021/03/15 00:24:17;;;;;;;;;;;;;;;6.71;100.00;99535.06;5060968;28;20391;-89
2021/03/15 00:26:44;;;;;;;;;;;;;;;6.74;100.00;99528.75;5075062;28;19935;-89
2021/03/15 00:29:11;;;;;;;;;;;;;;;6.71;100.00;99529.53;5073684;28;19925;-89
2021/03/15 00:31:37;;;;;;;;;;;;;;;6.69;100.00;99510.47;5095049;28;19928;-89
2021/03/15 00:34:04;;;;;;;;;;;;;;;6.70;100.00;99516.81;5095152;28;19955;-89
2021/03/15 00:36:30;;;;;;;;;;;;;;;6.70;100.00;99497.34;5094788;28;19931;-89
2021/03/15 00:38:57;;;;;;;;;;;;;;;6.69;100.00;99493.81;5095023;28;19924;-89
2021/03/15 00:41:24;;;;;;;;;;;;;;;6.70;100.00;99489.03;5061333;28;19928;-89
2021/03/15 00:43:50;;;;;;;;;;;;;;;6.66;100.00;99477.13;5058064;28;20393;-88
2021/03/15 00:46:17;;;;;;;;;;;;;;;6.68;100.00;99483.88;5073572;28;19924;-89
2021/03/15 00:48:44;;;;;;;;;;;;;;;6.69;100.00;99460.47;5057752;28;19986;-89
2021/03/15 00:51:11;;;;;;;;;;;;;;;6.72;100.00;99458.91;5087782;28;20015;-89
2021/03/15 00:53:38;;;;;;;;;;;;;;;6.63;100.00;99450.94;5056646;28;19975;-89
2021/03/15 00:56:05;;;;;;;;;;;;;;;6.61;100.00;99453.28;5069498;28;19932;-89
2021/03/15 00:58:32;;;;;;;;;;;;;;;6.66;100.00;99438.25;5094336;28;19946;-90
2021/03/15 01:00:59;;;;;;;;;;;;;;;6.67;100.00;99445.38;5074130;28;19924;-89
2021/03/15 01:03:40;;;;;;;;;;;;;;;6.51;100.00;99433.78;5056089;28;20291;-86
2021/03/15 01:06:08;;;;;;;;;;;;;;;6.31;100.00;99438.00;5077131;28;19924;-90
2021/03/15 01:08:38;;;;;;;;;;;;;;;6.33;100.00;99425.34;5063598;28;20284;-90
2021/03/15 01:11:11;;;;;;;;;;;;;;;6.28;100.00;99414.63;5081470;28;19924;-91
2021/03/15 01:13:42;;;;;;;;;;;;;;;6.34;100.00;99415.03;5061262;28;19924;-91
2021/03/15 01:16:11;;;;;;;;;;;;;;;6.38;100.00;99433.31;5063938;28;19924;-90
2021/03/15 01:18:38;;;;;;;;;;;;;;;6.39;100.00;99450.75;5060690;28;20018;-90
2021/03/15 01:21:05;;;;;;;;;;;;;;;6.36;100.00;99462.66;5093742;28;19924;-90
2021/03/15 01:23:31;;;;;;;;;;;;;;;6.34;100.00;99453.91;5094291;28;19930;-90
2021/03/15 01:25:58;;;;;;;;;;;;;;;6.39;100.00;99451.53;5093872;28;19946;-90
2021/03/15 01:28:24;;;;;;;;;;;;;;;6.41;100.00;99442.81;5077076;28;20018;-90
2021/03/15 01:30:51;;;;;;;;;;;;;;;6.40;100.00;99458.72;5093700;28;19924;-89
2021/03/15 01:33:17;;;;;;;;;;;;;;;6.40;100.00;99435.69;5056715;28;19974;-89
2021/03/15 01:35:44;;;;;;;;;;;;;;;6.37;100.00;99430.91;5086386;28;20271;-90
2021/03/15 01:38:11;;;;;;;;;;;;;;;6.36;100.00;99426.56;5073467;28;20391;-89
2021/03/15 01:40:39;;;;;;;;;;;;;;;6.44;100.00;99442.06;5085389;28;20471;-89
2021/03/15 01:43:07;;;;;;;;;;;;;;;6.43;100.00;99441.28;5073399;28;20390;-89
2021/03/15 01:45:34;;;;;;;;;;;;;;;6.43;100.00;99434.91;5046564;28;20778;-89
2021/03/15 01:48:01;;;;;;;;;;;;;;;6.43;100.00;99429.38;5089546;28;20306;-89
2021/03/15 01:50:27;;;;;;;;;;;;;;;6.44;100.00;99448.41;5056448;28;19959;-88
2021/03/15 01:52:55;;;;;;;;;;;;;;;6.45;100.00;99435.34;5104622;28;20023;-89
2021/03/15 01:55:22;;;;;;;;;;;;;;;6.46;100.00;99451.59;5093169;28;19931;-89
2021/03/15 01:57:49;;;;;;;;;;;;;;;6.45;100.00;99444.44;5110256;28;19924;-89
2021/03/15 02:00:17;;;;;;;;;;;;;;;6.41;100.00;99448.38;5093683;28;19970;-88
2021/03/15 02:03:02;;;;;;;;;;;;;;;6.45;100.00;99443.66;5093163;28;19928;-88
2021/03/15 02:05:33;;;;;;;;;;;;;;;6.40;100.00;99439.28;5093006;28;19931;-89
2021/03/15 02:07:59;;;;;;;;;;;;;;;6.43;100.00;99446.03;5076435;28;19932;-89
2021/03/15 02:10:26;;;;;;;;;;;;;;;6.31;100.00;99449.13;5093111;28;20390;-89
2021/03/15 02:13:17;;;;;;;;;;;;;;;6.32;100.00;99447.94;5072655;28;19928;-89
2021/03/15 02:15:56;;;;;;;;;;;;;;;6.37;100.00;99458.66;5089326;28;20310;-90
2021/03/15 02:18:41;;;;;;;;;;;;;;;6.31;100.00;99463.00;5059352;28;20409;-89
2021/03/15 02:21:41;;;;;;;;;;;;;;;6.35;100.00;99483.22;5093071;28;19924;-89
2021/03/15 02:24:25;;;;;;;;;;;;;;;6.39;100.00;99492.41;5092949;28;20279;-90
2021/03/15 02:26:58;;;;;;;;;;;;;;;6.36;100.00;99493.19;5072808;28;19963;-89
2021/03/15 02:29:56;;;;;;;;;;;;;;;6.31;100.00;99490.75;5090063;28;19931;-89
2021/03/15 02:32:41;;;;;;;;;;;;;;;6.23;100.00;99487.13;5055657;28;19990;-89
2021/03/15 02:35:12;;;;;;;;;;;;;;;6.20;100.00;99481.53;5063899;28;19932;-89
2021/03/15 02:37:50;;;;;;;;;;;;;;;6.26;100.00;99474.44;5092857;28;19960;-90
2021/03/15 02:40:23;;;;;;;;;;;;;;;6.22;100.00;99451.44;5076040;28;19931;-89
2021/03/15 02:42:50;;;;;;;;;;;;;;;6.26;100.00;99438.38;5076289;28;19924;-89
2021/03/15 02:45:18;;;;;;;;;;;;;;;6.22;100.00;99434.78;5076122;28;19931;-89
2021/03/15 02:47:45;;;;;;;;;;;;;;;6.27;100.00;99415.00;5072286;28;19928;-90
2021/03/15 02:50:13;;;;;;;;;;;;;;;6.39;100.00;99423.78;5059205;28;20279;-90
2021/03/15 02:52:44;;;;;;;;;;;;;;;6.32;100.00;99417.41;5072467;28;19924;-89
2021/03/15 02:55:12;;;;;;;;;;;;;;;6.36;100.00;99429.34;5108663;28;20062;-90
2021/03/15 02:57:41;;;;;;;;;;;;;;;6.33;100.00;99416.22;5068075;28;19924;-89
2021/03/15 03:00:08;;;;;;;;;;;;;;;6.33;100.00;99414.22;5069895;28;20313;-89
2021/03/15 03:02:36;;;;;;;;;;;;;;;6.32;100.00;99406.28;5092342;28;19928;-89
2021/03/15 03:05:05;;;;;;;;;;;;;;;6.31;100.00;99394.41;5092772;28;20429;-89
2021/03/15 03:07:32;;;;;;;;;;;;;;;6.25;100.00;99397.94;5075871;28;19924;-89
2021/03/15 03:09:59;;;;;;;;;;;;;;;6.25;100.00;99403.47;5092466;28;20382;-89
2021/03/15 03:12:26;;;;;;;;;;;;;;;6.21;100.00;99399.91;5075606;28;19924;-89
2021/03/15 03:14:53;;;;;;;;;;;;;;;6.25;100.00;99407.06;5092828;28;19924;-89
2021/03/15 03:17:21;;;;;;;;;;;;;;;6.29;100.00;99412.63;5075324;28;19924;-90
2021/03/15 03:19:49;;;;;;;;;;;;;;;6.26;100.00;99405.06;5109445;28;19969;-89
2021/03/15 03:22:17;;;;;;;;;;;;;;;6.31;100.00;99410.25;5092411;28;19974;-89
2021/03/15 03:24:45;;;;;;;;;;;;;;;6.26;100.00;99413.38;5075760;28;20799;-89
2021/03/15 03:27:13;;;;;;;;;;;;;;;6.27;100.00;99426.88;5075716;28;19924;-89
2021/03/15 03:29:41;;;;;;;;;;;;;;;6.28;100.00;99424.91;5071993;28;19924;-89
2021/03/15 03:32:07;;;;;;;;;;;;;;;6.27;100.00;99410.22;5086309;28;20392;-89
2021/03/15 03:34:34;;;;;;;;;;;;;;;6.28;100.00;99424.91;5079027;28;19935;-89
2021/03/15 03:37:00;;;;;;;;;;;;;;;6.26;100.00;99418.94;5096176;28;19981;-89
2021/03/15 03:39:27;;;;;;;;;;;;;;;6.22;100.00;99418.13;5113597;28;19931;-89
2021/03/15 03:41:53;;;;;;;;;;;;;;;6.22;100.00;99399.50;5079276;28;19924;-90
2021/03/15 03:44:20;;;;;;;;;;;;;;;6.20;100.00;99407.41;5112971;28;20011;-89
2021/03/15 03:46:47;;;;;;;;;;;;;;;6.22;100.00;99410.63;5075416;28;19994;-90
2021/03/15 03:49:14;;;;;;;;;;;;;;;6.19;100.00;99391.16;5071463;28;20022;-90
2021/03/15 03:51:44;;;;;;;;;;;;;;;6.18;100.00;99406.22;5095785;28;20003;-89
2021/03/15 03:54:15;;;;;;;;;;;;;;;6.22;100.00;99423.69;5078937;28;19924;-89
2021/03/15 03:56:45;;;;;;;;;;;;;;;6.24;100.00;99419.31;5095740;28;19967;-89
2021/03/15 03:59:15;;;;;;;;;;;;;;;6.24;100.00;99393.59;5075865;28;19924;-90
2021/03/15 04:01:43;;;;;;;;;;;;;;;6.26;100.00;99413.38;5075429;28;19924;-90
2021/03/15 04:04:11;;;;;;;;;;;;;;;6.30;100.00;99419.78;5092185;28;19925;-89
2021/03/15 04:06:39;;;;;;;;;;;;;;;6.31;100.00;99433.28;5068168;28;19925;-89
2021/03/15 04:09:14;;;;;;;;;;;;;;;6.33;100.00;99430.88;5095361;28;19939;-89
2021/03/15 04:11:48;;;;;;;;;;;;;;;6.32;100.00;99434.84;5078636;28;19925;-89
2021/03/15 04:14:19;;;;;;;;;;;;;;;6.36;100.00;99423.78;5075138;28;20398;-89
2021/03/15 04:16:47;;;;;;;;;;;;;;;6.34;100.00;99432.50;5090640;28;19924;-89
2021/03/15 04:19:14;;;;;;;;;;;;;;;6.37;100.00;99426.19;5078652;28;20417;-89
2021/03/15 04:21:43;;;;;;;;;;;;;;;6.36;100.00;99434.88;5095330;28;20423;-89
2021/03/15 04:24:11;;;;;;;;;;;;;;;6.44;100.00;99447.59;5095592;28;20389;-89
2021/03/15 04:26:38;;;;;;;;;;;;;;;6.42;100.00;99413.91;5061648;28;19935;-90
2021/03/15 04:29:06;;;;;;;;;;;;;;;6.43;100.00;99440.47;5094830;28;20389;-89
2021/03/15 04:31:34;;;;;;;;;;;;;;;6.45;100.00;99429.78;5074454;28;19930;-89
2021/03/15 04:34:01;;;;;;;;;;;;;;;6.39;100.00;99439.66;5091581;28;20027;-89
2021/03/15 04:36:28;;;;;;;;;;;;;;;6.34;100.00;99442.78;5084060;28;20398;-89
2021/03/15 04:38:57;;;;;;;;;;;;;;;6.32;100.00;99462.59;5094844;28;19959;-89
2021/03/15 04:41:24;;;;;;;;;;;;;;;6.42;100.00;99450.78;5077535;28;19924;-89
2021/03/15 04:43:51;;;;;;;;;;;;;;;6.37;100.00;99444.78;5077857;28;19924;-89
2021/03/15 04:46:19;;;;;;;;;;;;;;;6.33;100.00;99441.22;5064158;28;19925;-89
2021/03/15 04:48:47;;;;;;;;;;;;;;;6.36;100.00;99454.31;5094771;28;19924;-89
2021/03/15 04:51:16;;;;;;;;;;;;;;;6.32;100.00;99445.16;5074259;28;19977;-88
2021/03/15 04:53:44;;;;;;;;;;;;;;;6.32;100.00;99429.31;5085882;28;19931;-89
2021/03/15 04:56:13;;;;;;;;;;;;;;;6.29;100.00;99445.91;5094271;28;19931;-89
2021/03/15 04:58:41;;;;;;;;;;;;;;;6.23;100.00;99444.69;5094676;28;19959;-88
2021/03/15 05:01:08;;;;;;;;;;;;;;;6.20;100.00;99451.81;5077695;28;20019;-89
2021/03/15 05:03:36;;;;;;;;;;;;;;;6.19;100.00;99453.00;5074234;28;19932;-89
2021/03/15 05:06:06;;;;;;;;;;;;;;;6.16;100.00;99436.31;5069752;28;19929;-89
2021/03/15 05:08:35;;;;;;;;;;;;;;;6.09;100.00;99434.28;5087728;28;19925;-88
2021/03/15 05:11:02;;;;;;;;;;;;;;;6.05;100.00;99441.00;5067105;28;19931;-89
2021/03/15 05:13:29;;;;;;;;;;;;;;;6.02;100.00;99452.84;5092801;28;19932;-89
2021/03/15 05:15:58;;;;;;;;;;;;;;;6.03;100.00;99441.38;5060835;28;19924;-89
2021/03/15 05:18:26;;;;;;;;;;;;;;;6.06;100.00;99451.69;5094039;28;19935;-88
2021/03/15 05:20:53;;;;;;;;;;;;;;;6.03;100.00;99449.69;5077271;28;19928;-89
2021/03/15 05:23:21;;;;;;;;;;;;;;;6.03;100.00;99458.00;5075601;28;19924;-89
2021/03/15 05:25:49;;;;;;;;;;;;;;;6.11;100.00;99445.00;5094129;28;19924;-89
2021/03/15 05:28:17;;;;;;;;;;;;;;;6.06;100.00;99445.38;5093687;28;20008;-88
2021/03/15 05:30:45;;;;;;;;;;;;;;;6.02;100.00;99458.41;5060408;28;19924;-89
2021/03/15 05:33:13;;;;;;;;;;;;;;;5.99;100.00;99445.28;5093678;28;19927;-89
2021/03/15 05:35:41;;;;;;;;;;;;;;;6.02;100.00;99450.06;5077085;28;19962;-89
2021/03/15 05:38:08;;;;;;;;;;;;;;;5.97;100.00;99464.31;5077074;28;19931;-89
2021/03/15 05:40:37;;;;;;;;;;;;;;;5.99;100.00;99461.94;5060215;28;20022;-88
2021/03/15 05:43:04;;;;;;;;;;;;;;;5.98;100.00;99457.59;5076729;28;19928;-89
2021/03/15 05:45:51;;;;;;;;;;;;;;;6.02;100.00;99461.16;5093651;28;19939;-89
2021/03/15 05:48:20;;;;;;;;;;;;;;;5.98;100.00;99474.22;5073708;28;19931;-88
2021/03/15 05:50:56;;;;;;;;;;;;;;;6.03;100.00;99479.44;5091662;28;20410;-88
2021/03/15 05:53:23;;;;;;;;;;;;;;;6.02;100.00;99441.75;5093595;28;19932;-90
2021/03/15 05:55:58;;;;;;;;;;;;;;;5.99;100.00;99471.06;5075647;28;19931;-88
2021/03/15 05:58:24;;;;;;;;;;;;;;;5.94;100.00;99484.50;5072253;28;20406;-88
2021/03/15 06:00:51;;;;;;;;;;;;;;;5.95;100.00;99458.34;5090125;28;19954;-90
2021/03/15 06:03:26;;;;;;;;;;;;;;;5.99;100.00;99464.72;5073084;28;20054;-89
2021/03/15 06:05:53;;;;;;;;;;;;;;;5.98;100.00;99474.22;5089346;28;20284;-89
2021/03/15 06:08:21;;;;;;;;;;;;;;;5.95;100.00;99475.00;5093631;28;19924;-88
2021/03/15 06:11:02;;;;;;;;;;;;;;;5.91;100.00;99479.72;5093000;28;20374;-88
2021/03/15 06:13:31;;;;;;;;;;;;;;;5.89;100.00;99487.63;5076386;28;19938;-89
2021/03/15 06:15:59;;;;;;;;;;;;;;;5.87;100.00;99499.09;5073685;28;19931;-88
2021/03/15 06:18:27;;;;;;;;;;;;;;;5.87;100.00;99517.69;5059191;28;19959;-90
2021/03/15 06:20:53;;;;;;;;;;;;;;;5.95;100.00;99536.00;5064452;28;20065;-88
2021/03/15 06:23:20;;;;;;;;;;;;;;;6.02;100.00;99552.72;5076200;28;20061;-90
2021/03/15 06:25:47;;;;;;;;;;;;;;;6.04;100.00;99550.38;5094134;28;19977;-90
2021/03/15 06:28:15;;;;;;;;;;;;;;;6.08;100.00;99556.75;5076601;28;19928;-91
2021/03/15 06:30:42;;;;;;;;;;;;;;;6.12;100.00;99557.59;5093116;28;19989;-91
2021/03/15 06:33:10;;;;;;;;;;;;;;;6.16;100.00;99558.41;5087220;28;19931;-91
2021/03/15 06:35:38;;;;;;;;;;;;;;;6.16;100.00;99566.72;5076415;28;19927;-91
2021/03/15 06:38:05;;;;;;;;;;;;;;;6.12;100.00;99568.69;5092972;28;20020;-92
2021/03/15 06:40:35;;;;;;;;;;;;;;;6.18;100.00;99567.16;5090188;28;19924;-92
2021/03/15 06:43:03;;;;;;;;;;;;;;;6.22;100.00;99562.44;5088999;28;19928;-90
2021/03/15 06:45:30;;;;;;;;;;;;;;;6.22;100.00;99556.88;5076037;28;19927;-91
2021/03/15 06:47:58;;;;;;;;;;;;;;;6.26;100.00;99566.81;5072569;28;19925;-89
2021/03/15 06:50:25;;;;;;;;;;;;;;;6.27;100.00;99545.44;5063657;28;19923;-88
2021/03/15 06:52:51;;;;;;;;;;;;;;;6.25;100.00;99550.56;5092140;28;19931;-84
2021/03/15 06:55:18;;;;;;;;;;;;;;;6.25;100.00;99548.59;5083781;28;20019;-86
2021/03/15 06:57:45;;;;;;;;;;;;;;;6.24;100.00;99543.44;5089652;28;19924;-87
2021/03/15 07:00:12;;;;;;;;;;;;;;;6.26;100.00;99557.69;5088796;28;20440;-88
2021/03/15 07:02:40;;;;;;;;;;;;;;;6.33;100.00;99541.13;5085532;28;19931;-86
2021/03/15 07:05:10;;;;;;;;;;;;;;;6.33;100.00;99547.44;5102412;28;19931;-87
2021/03/15 07:07:38;;;;;;;;;;;;;;;6.31;100.00;99551.81;5072776;28;19929;-87
2021/03/15 07:10:16;;;;;;;;;;;;;;;6.28;100.00;99547.03;5078792;28;19924;-86
2021/03/15 07:12:43;;;;;;;;;;;;;;;6.28;100.00;99555.34;5093013;28;19924;-86
2021/03/15 07:15:10;;;;;;;;;;;;;;;6.22;100.00;99551.31;5057032;28;19924;-85
2021/03/15 07:17:36;;;;;;;;;;;;;;;6.21;100.00;99530.31;5085335;28;19924;-85
2021/03/15 07:20:04;;;;;;;;;;;;;;;6.20;100.00;99520.38;5092639;28;20016;-86
2021/03/15 07:22:31;;;;;;;;;;;;;;;6.18;100.00;99511.66;5076735;28;19924;-84
2021/03/15 07:25:03;;;;;;;;;;;;;;;6.20;100.00;99520.38;5094013;28;20014;-82
2021/03/15 07:27:30;;;;;;;;;;;;;;;6.25;100.00;99517.25;5093152;28;19924;-83
2021/03/15 07:29:57;;;;;;;;;;;;;;;6.26;100.00;99513.28;5093654;28;19924;-82
2021/03/15 07:32:38;;;;;;;;;;;;;;;6.29;100.00;99523.63;5109527;28;19924;-83
2021/03/15 07:35:25;;;;;;;;;;;;;;;6.27;100.00;99523.22;5094380;28;19938;-83
2021/03/15 07:37:52;;;;;;;;;;;;;;;6.27;100.00;99535.09;5095363;28;20651;-83
2021/03/15 07:40:33;;;;;;;;;;;;;;;6.29;100.00;99529.19;5097100;28;19954;-86
2021/03/15 07:43:01;;;;;;;;;;;;;;;6.30;100.00;99541.91;5055072;28;19986;-79
2021/03/15 07:45:38;;;;;;;;;;;;;;;6.32;100.00;99533.97;5087607;28;19931;-84
2021/03/15 07:48:06;;;;;;;;;;;;;;;6.37;100.00;99548.31;5109409;28;20049;-83
2021/03/15 07:50:33;;;;;;;;;;;;;;;6.37;100.00;99541.94;5093953;28;20018;-80
2021/03/15 07:52:59;;;;;;;;;;;;;;;6.44;100.00;99528.09;5091970;28;19928;-86
2021/03/15 07:55:36;;;;;;;;;;;;;;;6.48;100.00;99548.38;5049740;28;20394;-85
2021/03/15 07:58:23;;;;;;;;;;;;;;;6.50;100.00;99546.00;5086220;28;19931;-86
2021/03/15 08:00:50;;;;;;;;;;;;;;;6.53;100.00;99542.44;5072537;28;19925;-85
2021/03/15 08:03:17;;;;;;;;;;;;;;;6.54;100.00;99546.84;5072952;28;19963;-83
2021/03/15 08:05:44;;;;;;;;;;;;;;;6.54;100.00;99553.19;5092438;28;19924;-82
2021/03/15 08:08:10;;;;;;;;;;;;;;;6.55;100.00;99526.22;5075633;28;19924;-82
2021/03/15 08:10:37;;;;;;;;;;;;;;;6.58;100.00;99528.22;5093632;28;19932;-81
2021/03/15 08:16:25;;;;;;;;;;;;;;;6.61;100.00;99514.38;5073681;28;20077;-81
2021/03/15 08:18:53;;;;;;;;;;;;;;;6.65;100.00;99531.06;5092195;28;20266;-82
2021/03/15 08:21:27;;;;;;;;;;;;;;;6.61;100.00;99519.13;5092256;28;20382;-81
2021/03/15 08:23:55;;;;;;;;;;;;;;;6.61;100.00;99531.03;5094171;28;19924;-82
2021/03/15 08:26:22;;;;;;;;;;;;;;;6.64;100.00;99513.59;5093683;28;20628;-82
2021/03/15 08:28:52;;;;;;;;;;;;;;;6.65;100.00;99520.75;5079596;28;19931;-82
2021/03/15 08:31:39;;;;;;;;;;;;;;;6.65;100.00;99508.84;5092207;28;19928;-84
2021/03/15 08:34:06;;;;;;;;;;;;;;;6.67;100.00;99506.47;5091279;28;19924;-83
2021/03/15 08:36:39;;;;;;;;;;;;;;;6.72;100.00;99522.78;5091984;28;20006;-82
2021/03/15 08:39:24;;;;;;;;;;;;;;;6.70;100.00;99511.25;5079935;28;19947;-82
2021/03/15 08:42:11;;;;;;;;;;;;;;;6.71;100.00;99513.63;5093140;28;20379;-81
2021/03/15 08:44:58;;;;;;;;;;;;;;;6.75;100.00;99519.22;5084480;28;20610;-84
2021/03/15 08:47:43;;;;;;;;;;;;;;;6.93;100.00;99506.22;5092356;28;19937;-90
2021/03/15 08:50:29;;;;;;;;;;;;;;;7.18;100.00;99482.13;5092849;28;20467;-80
2021/03/15 08:52:56;;;;;;;;;;;;;;;7.29;100.00;99405.16;5086634;28;20350;-90
2021/03/15 08:55:49;;;;;;;;;;;;;;;7.25;100.00;99393.22;5071796;28;19925;-82
2021/03/15 08:58:34;;;;;;;;;;;;;;;7.16;100.00;99390.81;5082312;28;19940;-82
2021/03/15 09:01:01;;;;;;;;;;;;;;;7.02;100.00;99406.66;5077441;28;20390;-82
2021/03/15 09:03:46;;;;;;;;;;;;;;;7.01;100.00;99402.28;5084158;28;20019;-82
2021/03/15 09:06:13;;;;;;;;;;;;;;;7.05;100.00;99408.66;5091713;28;19924;-83
2021/03/15 09:08:59;;;;;;;;;;;;;;;7.21;100.00;99421.00;5091219;28;19924;-83
2021/03/15 09:11:35;;;;;;;;;;;;;;;7.37;100.00;99412.31;5092492;28;19931;-83
2021/03/15 09:14:17;;;;;;;;;;;;;;;7.44;100.00;99412.31;5092818;28;20327;-84
2021/03/15 09:16:54;;;;;;;;;;;;;;;7.30;100.00;99406.72;5091019;28;19977;-85
2021/03/15 09:19:20;;;;;;;;;;;;;;;7.19;100.00;99417.03;5091052;28;20010;-83
2021/03/15 09:21:50;;;;;;;;;;;;;;;7.07;100.00;99418.16;5091225;28;19924;-83
2021/03/15 09:24:32;;;;;;;;;;;;;;;7.07;100.00;99425.72;5091866;28;19924;-82
2021/03/15 09:27:00;;;;;;;;;;;;;;;7.05;100.00;99416.97;5090753;28;20319;-83
2021/03/15 09:29:26;;;;;;;;;;;;;;;7.04;100.00;99420.97;5092288;28;19924;-85
2021/03/15 09:31:57;;;;;;;;;;;;;;;7.13;100.00;99429.72;5091094;28;19928;-83
2021/03/15 09:34:24;;;;;;;;;;;;;;;7.18;100.00;99413.47;5090996;28;19928;-84
2021/03/15 09:36:51;;;;;;;;;;;;;;;7.29;100.00;99417.06;5090665;28;20306;-83
2021/03/15 09:39:18;;;;;;;;;;;;;;;7.48;100.00;99418.72;5092243;28;19927;-88
2021/03/15 09:41:47;;;;;;;;;;;;;;;7.62;100.00;99435.38;5071534;28;20375;-83
2021/03/15 09:44:14;;;;;;;;;;;;;;;7.72;100.00;99417.94;5076794;28;19931;-83
2021/03/15 09:46:41;;;;;;;;;;;;;;;7.54;100.00;99408.78;5091337;28;19925;-88
2021/03/15 09:49:08;;;;;;;;;;;;;;;7.59;100.00;99407.59;5092295;28;19924;-88
2021/03/15 09:51:35;;;;;;;;;;;;;;;7.59;100.00;99413.94;5090926;28;20022;-89
2021/03/15 09:54:36;;;;;;;;;;;;;;;7.52;100.00;99422.28;5089281;28;19930;-85
2021/03/15 09:57:10;;;;;;;;;;;;;;;7.45;100.00;99418.69;5091154;28;20041;-82
2021/03/15 10:00:10;;;;;;;;;;;;;;;7.59;100.00;99425.06;5109177;28;20283;-81
2021/03/15 10:03:03;;;;;;;;;;;;;;;7.57;100.00;99423.88;5080212;28;19969;-77
2021/03/15 10:05:51;;;;;;;;;;;;;;;7.68;100.00;99424.69;5093870;28;19932;-76
2021/03/15 10:08:36;;;;;;;;;;;;;;;7.54;100.00;99417.13;5093506;28;19924;-79
2021/03/15 10:11:22;;;;;;;;;;;;;;;7.72;100.00;99425.47;5092480;28;19924;-79
2021/03/15 10:14:09;;;;;;;;;;;;;;;7.82;100.00;99439.41;5077247;28;19931;-87
2021/03/15 10:17:05;;;;;;;;;;;;;;;7.88;100.00;99434.22;5050361;28;20629;-87
2021/03/15 10:19:54;;;;;;;;;;;;;;;7.78;100.00;99433.06;5071431;28;20428;-84
2021/03/15 10:22:21;;;;;;;;;;;;;;;7.80;100.00;99441.78;5064074;28;19924;-84
2021/03/15 10:24:54;;;;;;;;;;;;;;;7.83;100.00;99448.56;5079811;28;20016;-76
2021/03/15 10:27:30;;;;;;;;;;;;;;;7.62;100.00;99454.09;5088627;28;20383;-79
2021/03/15 10:30:11;;;;;;;;;;;;;;;7.64;100.00;99446.94;5074840;28;20015;-79
2021/03/15 10:32:42;;;;;;;;;;;;;;;7.51;100.00;99445.72;5086480;28;19924;-79
2021/03/15 10:35:11;;;;;;;;;;;;;;;7.64;100.00;99463.63;5081648;28;19925;-79
2021/03/15 10:37:52;;;;;;;;;;;;;;;7.62;100.00;99463.19;5082514;28;19936;-79
2021/03/15 10:40:25;;;;;;;;;;;;;;;7.65;100.00;99456.06;5070292;28;20931;-79
2021/03/15 10:42:54;;;;;;;;;;;;;;;7.80;100.00;99452.13;5077311;28;20299;-81
2021/03/15 10:45:26;;;;;;;;;;;;;;;7.95;100.00;99448.94;5080283;28;19932;-81
2021/03/15 10:48:04;;;;;;;;;;;;;;;7.91;100.00;99433.44;5081247;28;20008;-80
2021/03/15 10:50:44;;;;;;;;;;;;;;;7.79;100.00;99447.72;5090123;28;19924;-80
2021/03/15 10:53:23;;;;;;;;;;;;;;;7.78;100.00;99446.97;5088656;28;19960;-81
2021/03/15 10:55:54;;;;;;;;;;;;;;;7.73;100.00;99452.91;5088500;28;19925;-81
2021/03/15 10:58:38;;;;;;;;;;;;;;;7.79;100.00;99459.66;5057416;28;19931;-80
2021/03/15 11:01:11;;;;;;;;;;;;;;;7.70;100.00;99461.22;5091298;28;19924;-81
2021/03/15 11:03:46;;;;;;;;;;;;;;;7.69;100.00;99468.00;5092053;28;19924;-80
2021/03/15 11:06:27;;;;;;;;;;;;;;;7.67;100.00;99465.59;5091409;28;19966;-80
2021/03/15 11:09:16;;;;;;;;;;;;;;;7.75;100.00;99474.75;5071188;28;19924;-81
2021/03/15 11:11:51;;;;;;;;;;;;;;;7.81;100.00;99482.31;5090856;28;20359;-81
2021/03/15 11:14:24;;;;;;;;;;;;;;;7.73;100.00;99475.16;5091492;28;20015;-81
2021/03/15 11:17:21;;;;;;;;;;;;;;;7.81;100.00;99482.31;5091221;28;19955;-81
2021/03/15 11:19:54;;;;;;;;;;;;;;;7.88;100.00;99493.47;5091884;28;20054;-81
2021/03/15 11:22:26;;;;;;;;;;;;;;;7.83;100.00;99479.16;5092752;28;20364;-81
2021/03/15 11:25:06;;;;;;;;;;;;;;;7.89;100.00;99477.56;5058965;28;19924;-81
2021/03/15 11:27:39;;;;;;;;;;;;;;;7.90;100.00;99485.53;5103524;28;19947;-81
2021/03/15 11:30:21;;;;;;;;;;;;;;;8.07;100.00;99484.75;5091807;28;20264;-81
2021/03/15 11:33:07;;;;;;;;;;;;;;;8.19;100.00;99476.00;5092068;28;19985;-81
2021/03/15 11:35:53;;;;;;;;;;;;;;;8.20;100.00;99477.59;5092402;28;19924;-80
2021/03/15 11:38:26;;;;;;;;;;;;;;;8.11;100.00;99479.97;5093195;28;19928;-81
2021/03/15 11:40:57;;;;;;;;;;;;;;;8.10;100.00;99483.97;5092178;28;19981;-80
2021/03/15 11:43:25;;;;;;;;;;;;;;;8.06;100.00;99485.13;5091930;28;20373;-80
2021/03/15 11:45:59;;;;;;;;;;;;;;;7.97;100.00;99491.09;5083845;28;19999;-80
2021/03/15 11:48:27;;;;;;;;;;;;;;;7.91;100.00;99500.22;5093106;28;19982;-81
2021/03/15 11:51:09;;;;;;;;;;;;;;;8.03;100.00;99494.25;5088606;28;19932;-81
2021/03/15 11:53:46;;;;;;;;;;;;;;;8.03;100.00;99495.06;5090496;28;19928;-81
2021/03/15 11:56:13;;;;;;;;;;;;;;;8.21;100.00;99501.44;5086812;28;20367;-81
2021/03/15 11:58:40;;;;;;;;;;;;;;;8.31;100.00;99494.31;5091852;28;20362;-79
2021/03/15 12:01:08;;;;;;;;;;;;;;;8.44;100.00;99487.94;5094905;28;19924;-80
2021/03/15 12:03:38;;;;;;;;;;;;;;;8.35;100.00;99481.19;5093619;28;19963;-80
2021/03/15 12:06:26;;;;;;;;;;;;;;;8.33;100.00;99500.28;5094687;28;19928;-80
2021/03/15 12:09:02;;;;;;;;;;;;;;;7.93;100.00;99501.41;5095099;28;19931;-80
2021/03/15 12:11:28;;;;;;;;;;;;;;;7.86;100.00;99500.63;5094995;28;19925;-80
2021/03/15 12:13:55;;;;;;;;;;;;;;;8.00;100.00;99512.56;5095096;28;19928;-80
2021/03/15 12:16:23;;;;;;;;;;;;;;;8.10;100.00;99506.22;5075548;28;19924;-80
2021/03/15 12:18:50;;;;;;;;;;;;;;;8.24;100.00;99508.25;5095214;28;19924;-80
2021/03/15 12:21:21;;;;;;;;;;;;;;;8.37;100.00;99507.44;5095195;28;19954;-80
2021/03/15 12:23:55;;;;;;;;;;;;;;;8.54;100.00;99509.41;5095031;28;20450;-80
2021/03/15 12:26:23;;;;;;;;;;;;;;;8.84;100.00;99511.78;5094940;28;19981;-80
2021/03/15 12:28:57;;;;;;;;;;;;;;;9.06;100.00;99519.66;5095912;28;20260;-80
2021/03/15 12:31:34;;;;;;;;;;;;;;;9.05;100.00;99506.94;5094875;28;19924;-80
2021/03/15 12:34:00;;;;;;;;;;;;;;;9.18;100.00;99494.16;5094575;28;20025;-80
2021/03/15 12:36:27;;;;;;;;;;;;;;;9.31;100.00;99496.50;5094687;28;19947;-80
2021/03/15 12:38:57;;;;;;;;;;;;;;;9.48;100.00;99495.63;5094584;28;20553;-80
2021/03/15 12:41:26;;;;;;;;;;;;;;;9.62;100.00;99489.97;5094527;28;19951;-80
2021/03/15 12:43:53;;;;;;;;;;;;;;;9.59;100.00;99479.63;5094328;28;19982;-79
2021/03/15 12:46:25;;;;;;;;;;;;;;;9.62;100.00;99485.16;5095639;28;19970;-80
2021/03/15 12:49:00;;;;;;;;;;;;;;;9.43;100.00;99485.69;5077735;28;20322;-80
2021/03/15 12:51:28;;;;;;;;;;;;;;;9.42;100.00;99472.13;5094751;28;19986;-80
2021/03/15 12:53:55;;;;;;;;;;;;;;;9.45;100.00;99474.88;5094017;28;19964;-80
2021/03/15 12:56:30;;;;;;;;;;;;;;;9.70;100.00;99475.56;5095352;28;19939;-80
2021/03/15 12:58:56;;;;;;;;;;;;;;;9.57;100.00;99479.22;5095254;28;19940;-80
2021/03/15 13:01:29;;;;;;;;;;;;;;;9.48;100.00;99495.63;5094354;28;19925;-80
2021/03/15 13:03:58;;;;;;;;;;;;;;;9.42;100.00;99480.50;5082209;28;20011;-80
2021/03/15 13:06:30;;;;;;;;;;;;;;;9.61;100.00;99471.63;5075553;28;20366;-80
2021/03/15 13:09:00;;;;;;;;;;;;;;;9.58;100.00;99486.41;5091561;28;19924;-78
2021/03/15 13:11:47;;;;;;;;;;;;;;;9.55;100.00;99495.56;5092622;28;19928;-78
2021/03/15 13:14:35;;;;;;;;;;;;;;;9.49;100.00;99492.44;5071247;28;20019;-78